Time;durP1;ratioP1;P1;durP2;ratioP2;P2;SDS_P1;SDS_P2;PMS_P1;PMS_P2;Temp;Humidity;BMP_temperature;BMP_pressure;BME280_temperature;BME280_humidity;BME280_pressure;Samples;Min_cycle;Max_cycle;Signal;HPM_P1;HPM_P2
2023/06/24 00:00:07;;;;;;;5.60;3.75;;;18.00;99.90;;;;;;5040496;28;20311;-73
2023/06/24 05:01:20;;;;;;;8.40;5.90;;;17.10;99.90;;;;;;5989569;23;20025;-73
2023/06/24 05:03:46;;;;;;;7.82;5.80;;;17.10;99.90;;;;;;5025233;28;20034;-74
2023/06/24 05:06:12;;;;;;;8.02;5.43;;;17.10;99.90;;;;;;5017565;28;20033;-73
2023/06/24 05:08:38;;;;;;;9.32;5.70;;;17.20;99.90;;;;;;5026065;28;20057;-72
2023/06/24 05:11:04;;;;;;;6.65;5.03;;;17.20;99.90;;;;;;5026678;28;20048;-73
2023/06/24 05:13:29;;;;;;;8.13;5.10;;;17.20;99.90;;;;;;5025964;28;20169;-73
2023/06/24 05:15:55;;;;;;;8.63;5.32;;;17.40;99.90;;;;;;5026566;28;20030;-71
2023/06/24 05:18:21;;;;;;;8.23;5.78;;;17.40;99.90;;;;;;5026271;28;20049;-72
2023/06/24 05:20:46;;;;;;;7.22;5.28;;;17.50;99.90;;;;;;5025430;28;20017;-72
2023/06/24 05:23:12;;;;;;;11.80;6.03;;;17.60;99.90;;;;;;5003619;28;20315;-73
2023/06/24 05:25:38;;;;;;;10.90;5.90;;;17.60;99.90;;;;;;5025930;28;20214;-73
2023/06/24 05:28:03;;;;;;;11.10;7.82;;;17.70;99.90;;;;;;5026409;28;20041;-72
2023/06/24 05:30:29;;;;;;;11.93;7.82;;;17.80;99.90;;;;;;5025484;28;20033;-72
2023/06/24 05:32:55;;;;;;;8.15;5.32;;;17.90;99.90;;;;;;5025974;28;20045;-73
2023/06/24 05:35:21;;;;;;;10.80;6.95;;;18.00;99.90;;;;;;5025832;28;20042;-72
2023/06/24 05:37:46;;;;;;;9.77;6.93;;;18.10;99.90;;;;;;5025860;28;20041;-73
2023/06/24 05:40:12;;;;;;;8.48;6.40;;;18.20;99.90;;;;;;5026015;28;20034;-74
2023/06/24 05:42:38;;;;;;;18.98;11.80;;;18.20;99.90;;;;;;5019314;28;20026;-73
2023/06/24 05:45:06;;;;;;;11.85;7.85;;;18.30;99.90;;;;;;5006453;28;20034;-74
2023/06/24 05:47:32;;;;;;;14.05;8.07;;;18.40;99.90;;;;;;5005076;28;20200;-73
2023/06/24 05:49:58;;;;;;;10.10;6.65;;;18.50;99.90;;;;;;5005658;28;20092;-73
2023/06/24 05:52:24;;;;;;;8.77;5.32;;;18.70;99.90;;;;;;5005729;28;20026;-74
2023/06/24 05:54:50;;;;;;;11.15;6.25;;;18.90;99.90;;;;;;5006133;28;20050;-74
2023/06/24 05:57:16;;;;;;;22.38;16.48;;;18.90;99.90;;;;;;5005621;28;20319;-73
2023/06/24 05:59:41;;;;;;;15.45;9.75;;;18.90;99.90;;;;;;5005428;28;20049;-74
2023/06/24 06:02:07;;;;;;;9.38;6.22;;;19.00;99.90;;;;;;5005487;28;20057;-73
2023/06/24 06:04:33;;;;;;;13.32;8.95;;;19.10;99.90;;;;;;5008788;28;20030;-72
2023/06/24 06:06:58;;;;;;;15.77;10.23;;;19.20;99.90;;;;;;5006173;28;20045;-74
2023/06/24 06:09:24;;;;;;;9.45;6.57;;;19.30;99.70;;;;;;5009349;28;20280;-73
2023/06/24 06:11:50;;;;;;;10.40;6.65;;;19.40;99.70;;;;;;5024713;28;20049;-72
2023/06/24 06:14:16;;;;;;;10.98;7.00;;;19.60;99.60;;;;;;5007850;28;20040;-72
2023/06/24 06:16:41;;;;;;;10.85;6.13;;;19.60;99.50;;;;;;5024646;28;20260;-73
2023/06/24 06:19:07;;;;;;;8.43;5.18;;;19.70;99.20;;;;;;5025250;28;20304;-73
2023/06/24 06:21:33;;;;;;;9.43;6.93;;;19.80;99.00;;;;;;5007170;28;20065;-73
2023/06/24 06:23:58;;;;;;;10.52;7.40;;;19.90;98.80;;;;;;5020133;28;20030;-73
2023/06/24 06:26:24;;;;;;;12.50;8.18;;;19.90;98.50;;;;;;5005583;28;20026;-73
2023/06/24 06:28:51;;;;;;;8.00;6.07;;;20.20;98.10;;;;;;5004846;28;20049;-73
2023/06/24 06:31:16;;;;;;;8.48;5.95;;;20.30;97.70;;;;;;5008372;28;20296;-73
2023/06/24 06:33:43;;;;;;;10.02;6.88;;;20.50;97.30;;;;;;5018165;28;20044;-73
2023/06/24 06:36:09;;;;;;;16.73;13.05;;;20.50;96.90;;;;;;5024359;28;20038;-74
2023/06/24 06:38:34;;;;;;;25.27;18.65;;;20.70;96.80;;;;;;4987425;28;20041;-72
2023/06/24 06:41:00;;;;;;;8.63;5.47;;;20.80;96.50;;;;;;5005162;28;20069;-72
2023/06/24 06:43:26;;;;;;;7.03;4.55;;;20.90;96.00;;;;;;5004962;28;20029;-74
2023/06/24 06:45:52;;;;;;;6.07;4.20;;;21.00;95.70;;;;;;5004690;28;20022;-73
2023/06/24 06:48:18;;;;;;;8.73;4.05;;;21.10;95.60;;;;;;5005331;28;20037;-72
2023/06/24 06:50:45;;;;;;;7.80;3.90;;;21.30;95.40;;;;;;5024133;28;20026;-74
2023/06/24 06:53:11;;;;;;;6.10;3.88;;;21.40;94.50;;;;;;5024588;28;20042;-72
2023/06/24 06:55:39;;;;;;;7.07;4.32;;;21.50;94.40;;;;;;5023786;28;20064;-73
2023/06/24 06:58:05;;;;;;;5.10;3.20;;;21.80;94.20;;;;;;5024464;28;20061;-75
2023/06/24 07:00:30;;;;;;;4.22;2.85;;;21.80;91.90;;;;;;5006505;28;20037;-75
2023/06/24 07:02:56;;;;;;;4.18;2.60;;;21.70;90.70;;;;;;5024136;28;20136;-75
2023/06/24 07:05:22;;;;;;;6.47;2.80;;;21.70;90.50;;;;;;5024564;28;20013;-75
2023/06/24 07:07:49;;;;;;;4.03;2.67;;;21.80;90.50;;;;;;5023734;28;20219;-71
2023/06/24 07:10:17;;;;;;;6.87;3.23;;;21.90;90.30;;;;;;5013687;28;20018;-72
2023/06/24 07:12:42;;;;;;;4.25;2.70;;;21.90;90.20;;;;;;5003749;28;20367;-71
2023/06/24 07:15:09;;;;;;;5.10;2.92;;;22.00;90.00;;;;;;5004743;28;20033;-72
2023/06/24 07:17:34;;;;;;;4.38;2.40;;;22.20;89.70;;;;;;5004167;28;20034;-74
2023/06/24 07:20:00;;;;;;;4.57;2.65;;;22.20;88.50;;;;;;4987244;28;20049;-72
2023/06/24 07:22:26;;;;;;;3.75;2.58;;;22.30;88.20;;;;;;4986479;28;20030;-73
2023/06/24 07:24:51;;;;;;;4.05;2.60;;;22.60;87.70;;;;;;5009188;28;20045;-72
2023/06/24 07:27:17;;;;;;;4.93;2.88;;;22.60;85.80;;;;;;5009847;28;20037;-73
2023/06/24 07:29:43;;;;;;;4.80;2.83;;;22.70;86.40;;;;;;5023604;28;20227;-72
2023/06/24 07:32:08;;;;;;;3.33;2.67;;;22.70;86.10;;;;;;4996013;28;20037;-70
2023/06/24 07:34:34;;;;;;;4.45;2.80;;;22.60;86.10;;;;;;5003437;28;20097;-70
2023/06/24 07:37:00;;;;;;;4.63;2.70;;;22.70;86.90;;;;;;5008255;28;20025;-71
2023/06/24 07:39:26;;;;;;;5.00;2.72;;;22.90;86.10;;;;;;5023326;28;20038;-72
2023/06/24 07:41:51;;;;;;;5.15;2.78;;;22.90;86.80;;;;;;5003675;28;20026;-71
2023/06/24 07:44:18;;;;;;;4.50;2.83;;;23.10;85.80;;;;;;5003663;28;20034;-70
2023/06/24 07:46:44;;;;;;;4.32;2.60;;;23.30;85.60;;;;;;5003576;28;20024;-75
2023/06/24 07:49:10;;;;;;;4.60;2.67;;;23.20;85.00;;;;;;5003828;28;20216;-74
2023/06/24 07:51:36;;;;;;;4.00;3.00;;;23.20;85.60;;;;;;5006894;28;20065;-71
2023/06/24 07:54:02;;;;;;;5.60;3.47;;;23.30;85.00;;;;;;4986749;28;20026;-72
2023/06/24 07:56:27;;;;;;;6.00;3.20;;;23.50;85.90;;;;;;5003701;28;20073;-73
2023/06/24 07:58:53;;;;;;;6.25;2.78;;;23.60;85.30;;;;;;5003410;28;20038;-75
2023/06/24 08:01:19;;;;;;;7.35;3.00;;;23.50;84.30;;;;;;5003235;28;20030;-78
2023/06/24 08:03:44;;;;;;;5.65;3.10;;;23.80;84.50;;;;;;5003452;28;20252;-73
2023/06/24 08:06:10;;;;;;;5.03;2.80;;;23.90;83.70;;;;;;5003226;28;20038;-72
2023/06/24 08:08:36;;;;;;;4.78;2.78;;;23.80;82.20;;;;;;5003380;28;20026;-71
2023/06/24 08:11:03;;;;;;;3.58;2.72;;;23.90;82.50;;;;;;5017890;28;20068;-75
2023/06/24 08:13:29;;;;;;;4.22;2.72;;;23.90;82.20;;;;;;4988954;28;20034;-75
2023/06/24 08:15:54;;;;;;;4.35;2.80;;;23.80;81.80;;;;;;4985998;28;20101;-75
2023/06/24 08:18:20;;;;;;;5.72;2.65;;;23.80;82.20;;;;;;5003535;28;20088;-74
2023/06/24 08:20:46;;;;;;;5.22;2.92;;;23.70;82.80;;;;;;5002983;28;20034;-72
2023/06/24 08:23:11;;;;;;;4.50;2.70;;;23.70;81.70;;;;;;5003431;28;20322;-72
2023/06/24 08:25:37;;;;;;;5.47;3.10;;;23.70;82.50;;;;;;5002864;28;20339;-72
2023/06/24 08:28:03;;;;;;;6.93;2.78;;;23.80;82.40;;;;;;4986112;28;20068;-71
2023/06/24 08:30:29;;;;;;;4.80;2.85;;;23.90;81.70;;;;;;5003541;28;20022;-70
2023/06/24 08:32:55;;;;;;;5.13;2.63;;;23.90;82.50;;;;;;5013842;28;20042;-73
2023/06/24 08:35:21;;;;;;;4.88;3.00;;;24.30;82.60;;;;;;5003309;28;20026;-73
2023/06/24 08:37:47;;;;;;;6.95;2.90;;;24.40;82.00;;;;;;5002616;28;20038;-73
2023/06/24 08:40:12;;;;;;;5.28;2.80;;;24.70;81.90;;;;;;5003201;28;20053;-71
2023/06/24 08:42:38;;;;;;;3.78;2.72;;;24.80;80.60;;;;;;5003043;28;20038;-71
2023/06/24 08:45:04;;;;;;;5.18;3.10;;;25.10;80.00;;;;;;5003243;28;20081;-73
2023/06/24 08:47:30;;;;;;;5.15;2.40;;;25.10;78.50;;;;;;5003284;28;20030;-71
2023/06/24 08:50:04;;;;;;;3.47;2.45;;;25.30;78.20;;;;;;5002596;28;20050;-78
2023/06/24 08:52:35;;;;;;;5.78;2.00;;;25.50;75.50;;;;;;5003289;28;20034;-75
2023/06/24 08:55:01;;;;;;;5.78;2.67;;;25.40;74.50;;;;;;5005664;28;20039;-72
2023/06/24 08:57:27;;;;;;;4.03;2.50;;;25.40;76.90;;;;;;5003058;28;20034;-71
2023/06/24 08:59:53;;;;;;;4.35;2.45;;;25.40;75.70;;;;;;5002759;28;20026;-73
2023/06/24 09:02:20;;;;;;;4.30;2.58;;;25.50;76.60;;;;;;4985289;28;20346;-72
2023/06/24 09:04:45;;;;;;;4.85;2.40;;;25.60;74.90;;;;;;5002238;28;20031;-71
2023/06/24 09:07:11;;;;;;;3.78;2.13;;;25.50;74.20;;;;;;5002561;28;20085;-71
2023/06/24 09:09:46;;;;;;;3.80;2.40;;;25.40;71.60;;;;;;5007763;28;20061;-72
2023/06/24 09:12:14;;;;;;;3.25;2.17;;;25.30;72.20;;;;;;5022560;28;20034;-71
2023/06/24 09:14:40;;;;;;;4.30;2.30;;;25.20;72.50;;;;;;5011708;28;20030;-70
2023/06/24 09:17:09;;;;;;;4.22;2.67;;;25.00;73.30;;;;;;5002746;28;20042;-71
2023/06/24 09:19:36;;;;;;;3.85;2.28;;;25.00;73.90;;;;;;5002923;28;20034;-71
2023/06/24 09:22:06;;;;;;;3.83;2.38;;;25.10;73.70;;;;;;5002503;28;20100;-71
2023/06/24 09:24:36;;;;;;;4.65;2.78;;;25.40;74.40;;;;;;5006475;28;20034;-70
2023/06/24 09:27:03;;;;;;;3.35;2.08;;;25.50;73.00;;;;;;5005779;28;20029;-72
2023/06/24 09:29:32;;;;;;;3.95;2.55;;;25.70;73.40;;;;;;5005787;28;20385;-71
2023/06/24 09:31:59;;;;;;;6.40;4.78;;;25.70;73.30;;;;;;4992693;28;20057;-72
2023/06/24 09:34:29;;;;;;;3.95;2.65;;;25.80;73.40;;;;;;5006501;28;20038;-70
2023/06/24 09:36:57;;;;;;;17.50;12.70;;;25.90;72.00;;;;;;5005699;28;20034;-73
2023/06/24 09:39:30;;;;;;;34.50;27.60;;;25.90;73.00;;;;;;5006366;28;20029;-71
2023/06/24 09:42:00;;;;;;;4.30;2.85;;;26.10;73.70;;;;;;5005704;28;20030;-73
2023/06/24 09:44:29;;;;;;;4.28;2.60;;;26.30;72.60;;;;;;4995614;28;20096;-70
2023/06/24 09:46:56;;;;;;;4.45;2.55;;;26.30;71.90;;;;;;5012782;28;20034;-72
2023/06/24 09:49:22;;;;;;;3.40;2.40;;;26.10;71.40;;;;;;5005908;28;20027;-71
2023/06/24 09:51:55;;;;;;;4.78;2.60;;;26.20;71.70;;;;;;5005241;28;20026;-70
2023/06/24 09:54:22;;;;;;;5.25;3.30;;;26.20;70.50;;;;;;4988828;28;20023;-71
2023/06/24 09:56:50;;;;;;;3.93;2.63;;;26.10;70.60;;;;;;5005217;28;20300;-72
2023/06/24 09:59:19;;;;;;;8.15;2.75;;;25.90;71.10;;;;;;5005622;28;20668;-73
2023/06/24 10:01:46;;;;;;;4.32;2.40;;;26.10;72.10;;;;;;5004753;28;20378;-70
2023/06/24 10:04:19;;;;;;;4.82;2.90;;;26.40;71.80;;;;;;5005939;28;20370;-72
2023/06/24 10:06:45;;;;;;;4.07;2.50;;;26.60;71.40;;;;;;5007898;28;20053;-73
2023/06/24 10:09:16;;;;;;;4.57;2.47;;;26.60;69.50;;;;;;5008003;28;20037;-71
2023/06/24 10:11:47;;;;;;;4.53;2.50;;;26.50;70.00;;;;;;5024998;28;20057;-73
2023/06/24 10:14:14;;;;;;;4.20;2.47;;;26.80;70.60;;;;;;5025125;28;20040;-72
2023/06/24 10:16:42;;;;;;;3.10;2.13;;;27.00;69.40;;;;;;5025161;28;20107;-71
2023/06/24 10:19:07;;;;;;;3.78;1.90;;;27.00;67.40;;;;;;5024918;28;20212;-71
2023/06/24 10:21:53;;;;;;;3.40;1.80;;;27.10;64.90;;;;;;5025020;28;20048;-71
2023/06/24 10:24:34;;;;;;;4.70;2.35;;;27.10;64.60;;;;;;5024833;28;20251;-70
2023/06/24 10:27:04;;;;;;;8.45;6.32;;;27.50;65.00;;;;;;5009433;28;20034;-72
2023/06/24 10:29:34;;;;;;;5.88;2.28;;;27.40;64.40;;;;;;5005129;28;20089;-72
2023/06/24 10:32:10;;;;;;;3.70;2.00;;;27.60;64.90;;;;;;5015741;28;20037;-70
2023/06/24 10:34:44;;;;;;;4.15;2.13;;;27.70;63.60;;;;;;5024579;28;20030;-71
2023/06/24 10:37:17;;;;;;;3.65;2.10;;;27.80;62.90;;;;;;5025038;28;20046;-73
2023/06/24 10:39:52;;;;;;;3.38;2.20;;;27.90;62.50;;;;;;5024244;28;20422;-72
2023/06/24 10:42:34;;;;;;;6.10;4.25;;;27.70;62.40;;;;;;5019621;28;20199;-72
2023/06/24 10:45:08;;;;;;;7.28;2.22;;;27.90;63.20;;;;;;5024343;28;20097;-70
2023/06/24 10:47:35;;;;;;;5.65;3.88;;;27.70;64.70;;;;;;5007457;28;20034;-71
2023/06/24 10:50:04;;;;;;;3.90;2.88;;;27.60;63.90;;;;;;5006799;28;20219;-72
2023/06/24 10:52:30;;;;;;;4.35;2.65;;;27.60;64.10;;;;;;5024686;28;20296;-76
2023/06/24 10:54:57;;;;;;;3.30;2.10;;;27.60;64.20;;;;;;5024055;28;20045;-72
2023/06/24 10:57:25;;;;;;;3.78;2.38;;;27.90;63.70;;;;;;5024407;28;20041;-76
2023/06/24 10:59:52;;;;;;;3.67;2.40;;;28.00;62.80;;;;;;5010328;28;20038;-75
2023/06/24 11:02:26;;;;;;;3.78;2.70;;;27.90;63.10;;;;;;5004267;28;20289;-72
2023/06/24 11:04:53;;;;;;;6.68;4.15;;;27.90;63.10;;;;;;5004114;28;20224;-72
2023/06/24 11:07:25;;;;;;;3.63;2.38;;;28.00;63.10;;;;;;5004496;28;20042;-74
2023/06/24 11:10:11;;;;;;;4.68;2.00;;;28.00;62.40;;;;;;5011417;28;20207;-72
2023/06/24 11:12:39;;;;;;;3.95;2.15;;;28.20;62.50;;;;;;5023445;28;20041;-74
2023/06/24 11:15:07;;;;;;;2.83;1.90;;;28.40;62.20;;;;;;5006504;28;20283;-75
2023/06/24 11:17:34;;;;;;;3.40;2.25;;;28.70;62.00;;;;;;5024088;28;20054;-75
2023/06/24 11:20:00;;;;;;;3.25;1.92;;;28.80;61.70;;;;;;5014949;28;20121;-75
2023/06/24 11:22:26;;;;;;;6.20;2.38;;;28.80;60.90;;;;;;5004435;28;20220;-75
2023/06/24 11:24:53;;;;;;;3.80;2.00;;;29.00;62.20;;;;;;5003989;28;20022;-73
2023/06/24 11:27:29;;;;;;;3.22;2.22;;;29.10;61.90;;;;;;5004328;28;20033;-74
2023/06/24 11:29:58;;;;;;;3.65;2.10;;;29.10;60.90;;;;;;5004630;28;20316;-74
2023/06/24 11:32:24;;;;;;;3.22;2.20;;;29.10;60.90;;;;;;5023079;28;20081;-74
2023/06/24 11:34:50;;;;;;;4.07;2.15;;;29.30;61.30;;;;;;5027898;28;20085;-75
2023/06/24 11:37:18;;;;;;;3.95;2.22;;;29.40;60.60;;;;;;5029019;28;20108;-74
2023/06/24 11:39:45;;;;;;;3.58;2.05;;;29.70;60.50;;;;;;5025143;28;20011;-76
2023/06/24 11:42:11;;;;;;;3.47;2.15;;;29.50;59.80;;;;;;5005863;28;20101;-76
2023/06/24 11:44:43;;;;;;;4.70;2.13;;;29.80;59.20;;;;;;5003809;28;20089;-74
2023/06/24 11:47:10;;;;;;;3.03;1.95;;;30.40;59.00;;;;;;5013184;28;20215;-75
2023/06/24 11:49:53;;;;;;;4.65;2.22;;;31.30;58.20;;;;;;5003725;28;20034;-75
2023/06/24 11:52:19;;;;;;;4.50;1.92;;;32.20;56.60;;;;;;5013156;28;20049;-74
2023/06/24 11:54:45;;;;;;;4.05;1.83;;;33.30;54.20;;;;;;4991780;28;20030;-76
2023/06/24 11:57:12;;;;;;;3.70;1.77;;;34.30;51.20;;;;;;5003364;28;20034;-74
2023/06/24 11:59:38;;;;;;;2.70;1.83;;;35.20;50.00;;;;;;5003682;28;20058;-75
2023/06/24 12:02:04;;;;;;;2.88;2.10;;;36.10;49.00;;;;;;5011861;28;20059;-75
2023/06/24 12:04:32;;;;;;;3.20;1.60;;;37.00;48.00;;;;;;5013007;28;20046;-76
2023/06/24 12:06:58;;;;;;;2.78;1.95;;;37.80;47.00;;;;;;5002932;28;20026;-74
2023/06/24 12:09:24;;;;;;;2.63;1.88;;;38.00;47.00;;;;;;5007210;28;20021;-75
2023/06/24 12:11:52;;;;;;;8.05;7.30;;;38.60;45.30;;;;;;4986488;28;20030;-77
2023/06/24 12:14:18;;;;;;;3.00;2.35;;;39.10;44.90;;;;;;5003775;28;20077;-75
2023/06/24 12:16:44;;;;;;;3.15;1.70;;;39.50;44.50;;;;;;5003836;28;20069;-76
2023/06/24 12:19:10;;;;;;;3.17;1.80;;;39.80;44.00;;;;;;5002663;28;20026;-76
2023/06/24 12:21:35;;;;;;;2.78;1.95;;;39.90;43.70;;;;;;5003270;28;20209;-75
2023/06/24 12:24:02;;;;;;;2.35;1.80;;;40.50;43.20;;;;;;5002837;28;20030;-76
2023/06/24 12:26:27;;;;;;;2.60;1.80;;;41.00;42.20;;;;;;5003542;28;20028;-75
2023/06/24 12:28:56;;;;;;;2.40;1.70;;;40.40;42.90;;;;;;5021680;28;20323;-76
2023/06/24 12:31:22;;;;;;;3.28;1.83;;;40.90;43.60;;;;;;5016819;28;20094;-75
2023/06/24 12:33:48;;;;;;;2.23;1.90;;;40.90;43.00;;;;;;5003603;28;20034;-77
2023/06/24 12:36:14;;;;;;;2.20;1.73;;;40.90;43.40;;;;;;5003483;28;20018;-76
2023/06/24 12:38:40;;;;;;;2.17;1.73;;;40.80;42.60;;;;;;5003126;28;20034;-75
2023/06/24 12:41:06;;;;;;;4.25;2.78;;;40.90;42.10;;;;;;5002811;28;20223;-75
2023/06/24 12:43:32;;;;;;;5.47;4.10;;;40.70;42.40;;;;;;5003528;28;20030;-77
2023/06/24 12:45:58;;;;;;;4.18;3.42;;;41.20;41.50;;;;;;5002604;28;20045;-76
2023/06/24 12:48:24;;;;;;;3.40;1.80;;;42.00;40.90;;;;;;5003232;28;20026;-74
2023/06/24 12:50:53;;;;;;;2.50;1.67;;;41.60;40.70;;;;;;5002878;28;20125;-75
2023/06/24 12:53:20;;;;;;;4.05;1.70;;;41.70;40.70;;;;;;5002992;28;20085;-74
2023/06/24 12:55:46;;;;;;;2.75;1.65;;;41.10;40.10;;;;;;5003190;28;20094;-75
2023/06/24 12:58:14;;;;;;;3.80;1.95;;;41.10;40.60;;;;;;5004678;28;20026;-75
2023/06/24 13:00:40;;;;;;;2.45;1.65;;;42.30;41.10;;;;;;5006761;28;20053;-75
2023/06/24 13:03:06;;;;;;;3.35;2.00;;;43.70;40.60;;;;;;5006335;28;20050;-75
2023/06/24 13:05:31;;;;;;;2.25;1.67;;;43.10;39.20;;;;;;5006850;28;20200;-75
2023/06/24 13:07:57;;;;;;;4.18;2.28;;;42.70;39.40;;;;;;5024126;28;20105;-75
2023/06/24 13:10:23;;;;;;;2.35;1.63;;;42.40;39.80;;;;;;5014690;28;20045;-75
2023/06/24 13:12:49;;;;;;;2.30;1.42;;;43.00;39.60;;;;;;5006851;28;20026;-74
2023/06/24 13:15:14;;;;;;;3.30;1.77;;;43.90;39.40;;;;;;5006023;28;20251;-76
2023/06/24 13:17:40;;;;;;;2.75;1.83;;;44.10;38.70;;;;;;5006885;28;20134;-73
2023/06/24 13:20:07;;;;;;;4.10;2.00;;;43.90;38.50;;;;;;5006282;28;20105;-75
2023/06/24 13:22:33;;;;;;;2.50;1.92;;;43.30;38.00;;;;;;5006769;28;20030;-73
2023/06/24 13:24:59;;;;;;;2.07;1.50;;;43.30;38.70;;;;;;5006176;28;20343;-75
2023/06/24 13:27:25;;;;;;;2.17;1.67;;;43.50;38.00;;;;;;5009566;28;20045;-75
2023/06/24 13:29:51;;;;;;;3.60;2.27;;;43.40;37.90;;;;;;4989426;28;20093;-75
2023/06/24 13:32:17;;;;;;;5.03;4.63;;;44.80;38.30;;;;;;5006395;28;20359;-75
2023/06/24 13:34:42;;;;;;;3.23;1.80;;;45.70;38.40;;;;;;5006419;28;20319;-76
2023/06/24 13:37:08;;;;;;;2.20;1.70;;;46.60;38.00;;;;;;5005871;28;20033;-76
2023/06/24 13:39:34;;;;;;;3.87;1.77;;;46.80;37.20;;;;;;5006606;28;20240;-74
2023/06/24 13:42:00;;;;;;;2.87;1.70;;;46.30;38.00;;;;;;5005914;28;20022;-75
2023/06/24 13:44:26;;;;;;;2.30;1.80;;;46.60;37.20;;;;;;5006538;28;20035;-76
2023/06/24 13:46:53;;;;;;;4.10;1.60;;;46.90;37.40;;;;;;5006774;28;20077;-78
2023/06/24 13:49:19;;;;;;;4.07;1.88;;;46.80;37.20;;;;;;5008818;28;20038;-73
2023/06/24 13:51:45;;;;;;;3.35;1.77;;;46.60;37.50;;;;;;5006219;28;20026;-75
2023/06/24 13:54:11;;;;;;;3.90;1.92;;;46.50;37.10;;;;;;5005349;28;20026;-75
2023/06/24 13:56:37;;;;;;;2.83;1.93;;;47.00;37.20;;;;;;5006030;28;20065;-75
2023/06/24 13:59:02;;;;;;;3.15;2.05;;;47.60;37.00;;;;;;5005749;28;20097;-74
2023/06/24 14:01:28;;;;;;;2.28;1.90;;;48.10;37.20;;;;;;5005764;28;20041;-75
2023/06/24 14:03:55;;;;;;;2.55;2.10;;;48.20;36.80;;;;;;5005928;28;20030;-77
2023/06/24 14:06:22;;;;;;;3.28;1.60;;;49.20;36.90;;;;;;5005659;28;20201;-78
2023/06/24 14:08:49;;;;;;;4.00;2.13;;;48.70;36.50;;;;;;5007862;28;20018;-75
2023/06/24 14:11:15;;;;;;;3.25;1.90;;;48.10;36.70;;;;;;5023985;28;20247;-75
2023/06/24 14:13:42;;;;;;;3.05;1.75;;;47.90;36.50;;;;;;5025200;28;20093;-73
2023/06/24 14:16:08;;;;;;;2.50;1.98;;;47.80;36.20;;;;;;5024943;28;20029;-76
2023/06/24 14:18:34;;;;;;;2.38;1.92;;;48.10;36.50;;;;;;5025077;28;20033;-75
2023/06/24 14:21:01;;;;;;;2.38;1.73;;;48.10;36.40;;;;;;5024996;28;20026;-75
2023/06/24 14:23:28;;;;;;;2.13;1.50;;;47.80;36.10;;;;;;5025572;28;20037;-74
2023/06/24 14:25:54;;;;;;;3.55;1.80;;;48.40;36.70;;;;;;5030821;28;20037;-75
2023/06/24 14:28:21;;;;;;;3.50;2.13;;;49.10;36.20;;;;;;5027444;28;20034;-76
2023/06/24 14:30:46;;;;;;;2.85;1.55;;;47.10;35.70;;;;;;5013550;28;20275;-72
2023/06/24 14:33:13;;;;;;;3.03;1.60;;;47.30;37.50;;;;;;5009384;28;20027;-74
2023/06/24 14:35:39;;;;;;;2.40;1.70;;;48.30;36.40;;;;;;5005084;28;20034;-76
2023/06/24 14:38:04;;;;;;;3.07;1.93;;;48.90;35.80;;;;;;5004797;28;20061;-74
2023/06/24 14:40:31;;;;;;;2.57;1.93;;;48.40;35.70;;;;;;5005384;28;20034;-75
2023/06/24 14:42:57;;;;;;;4.88;2.03;;;48.40;36.00;;;;;;5004568;28;20038;-75
2023/06/24 14:45:23;;;;;;;2.50;1.60;;;46.10;36.60;;;;;;5004965;28;20034;-74
2023/06/24 14:47:49;;;;;;;3.65;1.90;;;43.30;37.40;;;;;;4988083;28;20053;-78
2023/06/24 14:50:14;;;;;;;3.88;2.00;;;41.70;38.60;;;;;;4993524;28;20029;-75
2023/06/24 14:52:40;;;;;;;2.80;1.95;;;40.30;39.30;;;;;;5024748;28;20017;-75
2023/06/24 14:55:06;;;;;;;2.65;1.90;;;40.90;39.90;;;;;;5024400;28;20212;-76
2023/06/24 14:57:32;;;;;;;3.38;1.95;;;42.60;38.90;;;;;;5024362;28;20032;-76
2023/06/24 14:59:58;;;;;;;2.40;1.70;;;44.50;38.50;;;;;;5024485;28;20239;-73
2023/06/24 15:02:25;;;;;;;3.80;1.85;;;46.50;37.60;;;;;;5024444;28;20109;-76
2023/06/24 15:04:51;;;;;;;2.30;1.75;;;48.10;36.20;;;;;;5024218;28;20078;-75
2023/06/24 15:07:17;;;;;;;2.97;1.70;;;48.60;35.60;;;;;;5023702;28;20044;-74
2023/06/24 15:09:43;;;;;;;2.20;1.60;;;49.10;35.50;;;;;;5017941;28;20030;-78
2023/06/24 15:12:09;;;;;;;4.32;1.90;;;49.50;35.20;;;;;;5007782;28;20200;-76
2023/06/24 15:14:35;;;;;;;2.72;2.08;;;50.00;35.50;;;;;;5004627;28;20089;-77
2023/06/24 15:17:01;;;;;;;2.45;1.70;;;49.50;35.10;;;;;;5004292;28;20038;-77
2023/06/24 15:19:27;;;;;;;9.05;8.23;;;49.30;35.30;;;;;;5004559;28;20022;-74
2023/06/24 15:21:53;;;;;;;7.10;6.40;;;48.30;35.40;;;;;;5004578;28;20335;-75
2023/06/24 15:24:19;;;;;;;3.30;3.00;;;47.60;35.70;;;;;;5004014;28;20026;-75
2023/06/24 15:26:45;;;;;;;3.20;2.27;;;47.30;35.70;;;;;;5004449;28;20332;-75
2023/06/24 15:29:10;;;;;;;2.60;2.10;;;46.60;35.50;;;;;;5004040;28;20234;-75
2023/06/24 15:31:36;;;;;;;2.53;1.50;;;47.50;35.70;;;;;;5007356;28;20033;-74
2023/06/24 15:34:02;;;;;;;3.33;1.90;;;48.30;35.50;;;;;;5003702;28;20034;-77
2023/06/24 15:36:29;;;;;;;4.00;1.90;;;48.20;35.60;;;;;;5004290;28;20073;-75
2023/06/24 15:38:55;;;;;;;2.47;1.85;;;48.00;35.70;;;;;;5004035;28;20205;-75
2023/06/24 15:41:22;;;;;;;2.78;1.80;;;47.50;35.80;;;;;;5003828;28;20038;-74
2023/06/24 15:43:47;;;;;;;;;;;47.60;35.10;;;;;;5004518;28;20026;-75
2023/06/24 15:46:13;;;;;;;2.60;1.80;;;46.90;35.80;;;;;;5003503;28;19968;-75
2023/06/24 15:48:39;;;;;;;3.60;1.80;;;47.80;35.70;;;;;;5003884;28;20053;-74
2023/06/24 15:51:05;;;;;;;2.13;1.53;;;48.30;35.40;;;;;;5003474;28;20101;-75
2023/06/24 15:53:31;;;;;;;2.97;2.07;;;48.80;35.30;;;;;;5007531;28;20461;-75
2023/06/24 15:55:57;;;;;;;2.80;1.70;;;49.00;34.90;;;;;;5003797;28;20034;-75
2023/06/24 15:58:23;;;;;;;2.30;1.70;;;49.00;35.20;;;;;;5003494;28;20099;-75
2023/06/24 16:00:49;;;;;;;2.40;1.77;;;48.70;35.90;;;;;;5003666;28;20367;-77
2023/06/24 16:03:14;;;;;;;2.53;1.60;;;48.60;35.00;;;;;;5003553;28;20316;-74
2023/06/24 16:05:40;;;;;;;1.90;1.50;;;48.80;35.10;;;;;;5003625;28;20421;-77
2023/06/24 16:08:06;;;;;;;2.40;1.60;;;48.30;35.30;;;;;;5002990;28;20045;-78
2023/06/24 16:10:32;;;;;;;2.27;1.77;;;47.80;35.40;;;;;;5016529;28;20029;-75
2023/06/24 16:12:58;;;;;;;2.10;1.70;;;47.80;35.40;;;;;;5017139;28;20018;-75
2023/06/24 16:15:24;;;;;;;2.93;2.00;;;47.90;35.30;;;;;;5003280;28;20034;-75
2023/06/24 16:17:49;;;;;;;2.47;2.05;;;48.10;35.40;;;;;;5003792;28;20038;-75
2023/06/24 16:20:19;;;;;;;3.90;1.83;;;48.70;35.00;;;;;;5002638;28;20030;-77
2023/06/24 16:22:45;;;;;;;2.45;1.73;;;47.90;35.50;;;;;;4986213;28;20118;-75
2023/06/24 16:25:12;;;;;;;3.15;2.20;;;48.40;35.10;;;;;;5007670;28;20022;-74
2023/06/24 16:27:37;;;;;;;2.28;1.75;;;48.30;35.00;;;;;;5004035;28;20097;-77
2023/06/24 16:30:04;;;;;;;2.63;1.83;;;48.30;34.90;;;;;;5015497;28;20041;-76
2023/06/24 16:32:30;;;;;;;3.35;2.10;;;48.10;34.80;;;;;;5019452;28;20085;-75
2023/06/24 16:34:55;;;;;;;3.22;1.80;;;47.20;35.20;;;;;;5003495;28;20038;-78
2023/06/24 16:37:21;;;;;;;2.07;1.57;;;47.50;35.60;;;;;;5003050;28;20034;-74
2023/06/24 16:39:47;;;;;;;2.95;2.00;;;47.50;35.10;;;;;;5002950;28;20037;-75
2023/06/24 16:42:13;;;;;;;3.47;1.77;;;47.30;35.20;;;;;;5010283;28;20101;-74
2023/06/24 16:44:38;;;;;;;4.50;2.20;;;47.60;35.10;;;;;;5022758;28;20260;-75
2023/06/24 16:47:04;;;;;;;3.00;2.10;;;48.00;34.90;;;;;;5005126;28;20307;-75
2023/06/24 16:49:31;;;;;;;4.43;2.00;;;47.00;35.20;;;;;;5022761;28;20049;-76
2023/06/24 16:51:57;;;;;;;2.25;1.75;;;46.70;35.50;;;;;;5022757;28;20201;-76
2023/06/24 16:54:24;;;;;;;2.53;1.77;;;46.90;35.40;;;;;;5016755;28;20085;-74
2023/06/24 16:56:51;;;;;;;4.63;2.20;;;46.60;35.50;;;;;;4985854;28;20141;-75
2023/06/24 16:59:17;;;;;;;3.20;2.22;;;45.30;35.80;;;;;;5010203;28;20038;-75
2023/06/24 17:01:42;;;;;;;6.55;3.65;;;44.80;36.10;;;;;;5022328;28;20049;-76
2023/06/24 17:04:08;;;;;;;5.88;2.53;;;44.80;36.10;;;;;;5022738;28;20040;-75
2023/06/24 17:06:34;;;;;;;5.13;2.67;;;44.90;36.00;;;;;;5004982;28;20017;-77
2023/06/24 17:09:00;;;;;;;5.20;2.40;;;44.60;35.90;;;;;;5022624;28;20033;-76
2023/06/24 17:11:26;;;;;;;3.10;2.20;;;43.90;36.20;;;;;;5002290;28;20038;-76
2023/06/24 17:13:52;;;;;;;4.20;1.80;;;44.20;36.20;;;;;;5002892;28;20042;-77
2023/06/24 17:16:17;;;;;;;3.20;2.00;;;44.60;36.10;;;;;;5018990;28;20053;-76
2023/06/24 17:18:43;;;;;;;5.20;2.10;;;44.60;36.10;;;;;;5023672;28;20299;-75
2023/06/24 17:21:09;;;;;;;3.42;1.90;;;44.80;36.00;;;;;;5030193;28;20018;-75
2023/06/24 17:23:36;;;;;;;4.00;1.90;;;43.80;36.20;;;;;;5027212;28;20060;-74
2023/06/24 17:26:02;;;;;;;4.57;1.95;;;43.60;36.70;;;;;;5026803;28;20316;-73
2023/06/24 17:28:28;;;;;;;3.00;1.83;;;43.90;36.60;;;;;;5023966;28;20030;-74
2023/06/24 17:30:54;;;;;;;2.97;1.75;;;43.50;36.60;;;;;;5022698;28;20033;-77
2023/06/24 17:33:20;;;;;;;2.92;1.80;;;43.90;36.50;;;;;;5015020;28;20030;-76
2023/06/24 17:35:46;;;;;;;4.28;2.17;;;43.60;36.50;;;;;;4989209;28;20077;-77
2023/06/24 17:38:11;;;;;;;2.97;2.28;;;43.30;36.50;;;;;;5002497;28;20034;-77
2023/06/24 17:40:37;;;;;;;3.40;2.10;;;43.40;36.80;;;;;;5002443;28;20026;-79